sensor_id;sensor_type;location;lat;lon;timestamp;temperature;humidity
58517;DHT22;44308;50.810;0.284;2023-07-20T00:00:25;16.60;99.90
58517;DHT22;44308;50.810;0.284;2023-07-20T00:03:09;16.50;99.90
58517;DHT22;44308;50.810;0.284;2023-07-20T00:05:35;16.50;99.90
58517;DHT22;44308;50.810;0.284;2023-07-20T00:08:00;16.40;99.90
58517;DHT22;44308;50.810;0.284;2023-07-20T00:10:26;16.40;99.90
58517;DHT22;44308;50.810;0.284;2023-07-20T00:12:52;16.30;99.90
58517;DHT22;44308;50.810;0.284;2023-07-20T00:15:18;16.30;99.90
58517;DHT22;44308;50.810;0.284;2023-07-20T00:17:43;16.30;99.90
58517;DHT22;44308;50.810;0.284;2023-07-20T00:20:10;16.20;99.90
58517;DHT22;44308;50.810;0.284;2023-07-20T00:22:36;16.10;99.90
58517;DHT22;44308;50.810;0.284;2023-07-20T00:25:02;16.10;99.90
58517;DHT22;44308;50.810;0.284;2023-07-20T00:27:28;16.00;99.90
58517;DHT22;44308;50.810;0.284;2023-07-20T00:29:54;16.00;99.90
58517;DHT22;44308;50.810;0.284;2023-07-20T00:32:20;16.00;99.90
58517;DHT22;44308;50.810;0.284;2023-07-20T00:35:04;15.90;99.90
58517;DHT22;44308;50.810;0.284;2023-07-20T00:37:31;15.80;99.90
58517;DHT22;44308;50.810;0.284;2023-07-20T00:39:57;15.80;99.90
58517;DHT22;44308;50.810;0.284;2023-07-20T00:42:23;15.80;99.90
58517;DHT22;44308;50.810;0.284;2023-07-20T00:44:49;15.80;99.90
58517;DHT22;44308;50.810;0.284;2023-07-20T00:47:15;15.70;99.90
58517;DHT22;44308;50.810;0.284;2023-07-20T00:49:44;15.60;99.90
58517;DHT22;44308;50.810;0.284;2023-07-20T00:52:11;15.60;99.90
58517;DHT22;44308;50.810;0.284;2023-07-20T00:54:41;15.50;99.90
58517;DHT22;44308;50.810;0.284;2023-07-20T00:57:10;15.50;99.90
58517;DHT22;44308;50.810;0.284;2023-07-20T00:59:38;15.50;99.90
58517;DHT22;44308;50.810;0.284;2023-07-20T01:02:07;15.50;99.90
58517;DHT22;44308;50.810;0.284;2023-07-20T01:04:34;15.40;99.90
58517;DHT22;44308;50.810;0.284;2023-07-20T01:12:24;15.40;99.90
58517;DHT22;44308;50.810;0.284;2023-07-20T01:14:52;15.40;99.90
58517;DHT22;44308;50.810;0.284;2023-07-20T01:17:18;15.30;99.90
58517;DHT22;44308;50.810;0.284;2023-07-20T01:19:44;15.30;99.90
58517;DHT22;44308;50.810;0.284;2023-07-20T01:28:07;15.10;99.90
58517;DHT22;44308;50.810;0.284;2023-07-20T01:30:50;15.10;99.90
58517;DHT22;44308;50.810;0.284;2023-07-20T01:33:20;15.10;99.90
58517;DHT22;44308;50.810;0.284;2023-07-20T01:35:49;15.10;99.90
58517;DHT22;44308;50.810;0.284;2023-07-20T01:38:16;15.00;99.90
58517;DHT22;44308;50.810;0.284;2023-07-20T01:40:45;15.00;99.90
58517;DHT22;44308;50.810;0.284;2023-07-20T01:43:12;15.00;99.90
58517;DHT22;44308;50.810;0.284;2023-07-20T01:45:38;15.00;99.90
58517;DHT22;44308;50.810;0.284;2023-07-20T01:48:05;15.00;99.90
58517;DHT22;44308;50.810;0.284;2023-07-20T01:50:30;15.00;99.90
58517;DHT22;44308;50.810;0.284;2023-07-20T01:52:57;14.90;99.90
58517;DHT22;44308;50.810;0.284;2023-07-20T01:55:23;14.90;99.90
58517;DHT22;44308;50.810;0.284;2023-07-20T01:57:49;14.90;99.90
58517;DHT22;44308;50.810;0.284;2023-07-20T02:00:15;14.80;99.90
58517;DHT22;44308;50.810;0.284;2023-07-20T02:02:43;14.80;99.90
58517;DHT22;44308;50.810;0.284;2023-07-20T02:05:09;14.80;99.90
58517;DHT22;44308;50.810;0.284;2023-07-20T02:07:34;14.70;99.90
58517;DHT22;44308;50.810;0.284;2023-07-20T02:10:02;14.80;99.90
58517;DHT22;44308;50.810;0.284;2023-07-20T02:12:28;14.70;99.90
58517;DHT22;44308;50.810;0.284;2023-07-20T02:14:57;14.70;99.90
58517;DHT22;44308;50.810;0.284;2023-07-20T02:17:26;14.70;99.90
58517;DHT22;44308;50.810;0.284;2023-07-20T02:19:56;14.70;99.90
58517;DHT22;44308;50.810;0.284;2023-07-20T02:22:23;14.70;99.90
58517;DHT22;44308;50.810;0.284;2023-07-20T02:24:50;14.60;99.90
58517;DHT22;44308;50.810;0.284;2023-07-20T02:27:16;14.60;99.90
58517;DHT22;44308;50.810;0.284;2023-07-20T02:29:42;14.60;99.90
58517;DHT22;44308;50.810;0.284;2023-07-20T02:32:09;14.50;99.90
58517;DHT22;44308;50.810;0.284;2023-07-20T02:34:36;14.50;99.90
58517;DHT22;44308;50.810;0.284;2023-07-20T02:37:02;14.50;99.90
58517;DHT22;44308;50.810;0.284;2023-07-20T02:39:28;14.50;99.90
58517;DHT22;44308;50.810;0.284;2023-07-20T02:41:54;14.40;99.90
58517;DHT22;44308;50.810;0.284;2023-07-20T02:44:21;14.40;99.90
58517;DHT22;44308;50.810;0.284;2023-07-20T02:46:47;14.30;99.90
58517;DHT22;44308;50.810;0.284;2023-07-20T02:49:15;14.30;99.90
58517;DHT22;44308;50.810;0.284;2023-07-20T02:51:41;14.30;99.90
58517;DHT22;44308;50.810;0.284;2023-07-20T02:54:08;14.30;99.90
58517;DHT22;44308;50.810;0.284;2023-07-20T02:56:34;14.30;99.90
58517;DHT22;44308;50.810;0.284;2023-07-20T02:59:01;14.20;99.90
58517;DHT22;44308;50.810;0.284;2023-07-20T03:01:27;14.20;99.90
58517;DHT22;44308;50.810;0.284;2023-07-20T03:07:00;14.20;99.90
58517;DHT22;44308;50.810;0.284;2023-07-20T03:09:25;14.10;99.90
58517;DHT22;44308;50.810;0.284;2023-07-20T03:11:51;14.10;99.90
58517;DHT22;44308;50.810;0.284;2023-07-20T03:14:36;14.10;99.90
58517;DHT22;44308;50.810;0.284;2023-07-20T03:17:02;14.10;99.90
58517;DHT22;44308;50.810;0.284;2023-07-20T03:19:28;14.10;99.90
58517;DHT22;44308;50.810;0.284;2023-07-20T03:21:54;14.00;99.90
58517;DHT22;44308;50.810;0.284;2023-07-20T03:24:40;14.00;99.90
58517;DHT22;44308;50.810;0.284;2023-07-20T03:27:06;14.10;99.90
58517;DHT22;44308;50.810;0.284;2023-07-20T03:29:32;14.10;99.90
58517;DHT22;44308;50.810;0.284;2023-07-20T03:31:59;14.10;99.90
58517;DHT22;44308;50.810;0.284;2023-07-20T03:34:26;14.10;99.90
58517;DHT22;44308;50.810;0.284;2023-07-20T03:36:51;14.00;99.90
58517;DHT22;44308;50.810;0.284;2023-07-20T03:39:17;14.10;99.90
58517;DHT22;44308;50.810;0.284;2023-07-20T03:41:43;14.00;99.90
58517;DHT22;44308;50.810;0.284;2023-07-20T03:44:10;14.00;99.90
58517;DHT22;44308;50.810;0.284;2023-07-20T03:46:35;14.00;99.90
58517;DHT22;44308;50.810;0.284;2023-07-20T03:49:01;13.90;99.90
58517;DHT22;44308;50.810;0.284;2023-07-20T03:51:27;14.00;99.90
58517;DHT22;44308;50.810;0.284;2023-07-20T03:53:55;13.90;99.90
58517;DHT22;44308;50.810;0.284;2023-07-20T03:56:20;14.00;99.90
58517;DHT22;44308;50.810;0.284;2023-07-20T03:58:46;14.00;99.90
58517;DHT22;44308;50.810;0.284;2023-07-20T04:01:12;14.00;99.90
58517;DHT22;44308;50.810;0.284;2023-07-20T04:03:38;14.00;99.90
58517;DHT22;44308;50.810;0.284;2023-07-20T04:06:04;13.90;99.90
58517;DHT22;44308;50.810;0.284;2023-07-20T04:08:30;14.00;99.90
58517;DHT22;44308;50.810;0.284;2023-07-20T04:11:01;14.00;99.90
58517;DHT22;44308;50.810;0.284;2023-07-20T04:13:29;14.00;99.90
58517;DHT22;44308;50.810;0.284;2023-07-20T04:16:02;13.90;99.90
58517;DHT22;44308;50.810;0.284;2023-07-20T04:18:28;13.90;99.90
58517;DHT22;44308;50.810;0.284;2023-07-20T04:20:53;13.90;99.90
58517;DHT22;44308;50.810;0.284;2023-07-20T04:23:22;13.90;99.90
58517;DHT22;44308;50.810;0.284;2023-07-20T04:25:48;13.90;99.90
58517;DHT22;44308;50.810;0.284;2023-07-20T04:28:14;13.90;99.90
58517;DHT22;44308;50.810;0.284;2023-07-20T04:30:39;13.90;99.90
58517;DHT22;44308;50.810;0.284;2023-07-20T04:33:25;13.90;99.90
58517;DHT22;44308;50.810;0.284;2023-07-20T04:35:54;13.90;99.90
58517;DHT22;44308;50.810;0.284;2023-07-20T04:38:21;13.90;99.90
58517;DHT22;44308;50.810;0.284;2023-07-20T04:40:48;13.90;99.90
58517;DHT22;44308;50.810;0.284;2023-07-20T04:43:33;13.90;99.90
58517;DHT22;44308;50.810;0.284;2023-07-20T04:45:59;13.80;99.90
58517;DHT22;44308;50.810;0.284;2023-07-20T04:48:27;13.80;99.90
58517;DHT22;44308;50.810;0.284;2023-07-20T04:50:53;13.80;99.90
58517;DHT22;44308;50.810;0.284;2023-07-20T04:53:21;13.80;99.90
58517;DHT22;44308;50.810;0.284;2023-07-20T04:55:50;13.80;99.90
58517;DHT22;44308;50.810;0.284;2023-07-20T04:58:21;13.80;99.90
58517;DHT22;44308;50.810;0.284;2023-07-20T05:00:50;13.90;99.90
58517;DHT22;44308;50.810;0.284;2023-07-20T05:03:37;13.90;99.90
58517;DHT22;44308;50.810;0.284;2023-07-20T05:06:03;13.90;99.90
58517;DHT22;44308;50.810;0.284;2023-07-20T05:08:29;13.90;99.90
58517;DHT22;44308;50.810;0.284;2023-07-20T05:10:54;14.00;99.90
58517;DHT22;44308;50.810;0.284;2023-07-20T05:17:21;14.10;99.90
58517;DHT22;44308;50.810;0.284;2023-07-20T05:19:50;14.10;99.90
58517;DHT22;44308;50.810;0.284;2023-07-20T05:22:19;14.20;99.90
58517;DHT22;44308;50.810;0.284;2023-07-20T05:28:09;14.30;99.90
58517;DHT22;44308;50.810;0.284;2023-07-20T05:30:35;14.40;99.90
58517;DHT22;44308;50.810;0.284;2023-07-20T05:38:49;14.70;99.90
58517;DHT22;44308;50.810;0.284;2023-07-20T05:41:15;14.80;99.90
58517;DHT22;44308;50.810;0.284;2023-07-20T05:44:00;14.90;99.90
58517;DHT22;44308;50.810;0.284;2023-07-20T05:46:26;15.00;99.90
58517;DHT22;44308;50.810;0.284;2023-07-20T05:48:52;15.20;99.90
58517;DHT22;44308;50.810;0.284;2023-07-20T05:51:17;15.40;99.90
58517;DHT22;44308;50.810;0.284;2023-07-20T05:54:02;15.60;99.90
58517;DHT22;44308;50.810;0.284;2023-07-20T05:56:27;15.80;99.90
58517;DHT22;44308;50.810;0.284;2023-07-20T05:58:53;16.10;99.90
58517;DHT22;44308;50.810;0.284;2023-07-20T06:01:19;16.30;99.90
58517;DHT22;44308;50.810;0.284;2023-07-20T06:03:48;16.70;99.90
58517;DHT22;44308;50.810;0.284;2023-07-20T06:06:14;16.90;99.90
58517;DHT22;44308;50.810;0.284;2023-07-20T06:08:40;17.10;99.90
58517;DHT22;44308;50.810;0.284;2023-07-20T06:11:10;17.30;99.90
58517;DHT22;44308;50.810;0.284;2023-07-20T06:13:36;17.50;99.90
58517;DHT22;44308;50.810;0.284;2023-07-20T06:16:01;17.60;99.90
58517;DHT22;44308;50.810;0.284;2023-07-20T06:18:29;17.60;99.90
58517;DHT22;44308;50.810;0.284;2023-07-20T06:20:56;17.80;99.90
58517;DHT22;44308;50.810;0.284;2023-07-20T06:23:22;17.90;99.90
58517;DHT22;44308;50.810;0.284;2023-07-20T06:25:47;18.00;99.90
58517;DHT22;44308;50.810;0.284;2023-07-20T06:28:19;18.10;99.90
58517;DHT22;44308;50.810;0.284;2023-07-20T06:30:51;18.20;99.90
58517;DHT22;44308;50.810;0.284;2023-07-20T06:33:33;18.70;99.90
58517;DHT22;44308;50.810;0.284;2023-07-20T06:36:05;19.60;99.90
58517;DHT22;44308;50.810;0.284;2023-07-20T06:38:33;20.00;99.90
58517;DHT22;44308;50.810;0.284;2023-07-20T06:40:59;20.10;99.90
58517;DHT22;44308;50.810;0.284;2023-07-20T06:43:27;19.80;99.90
58517;DHT22;44308;50.810;0.284;2023-07-20T06:46:03;19.60;99.90
58517;DHT22;44308;50.810;0.284;2023-07-20T06:48:34;19.40;99.90
58517;DHT22;44308;50.810;0.284;2023-07-20T06:51:08;19.20;99.90
58517;DHT22;44308;50.810;0.284;2023-07-20T06:53:42;19.00;99.90
58517;DHT22;44308;50.810;0.284;2023-07-20T06:56:08;18.70;99.90
58517;DHT22;44308;50.810;0.284;2023-07-20T06:58:37;18.60;99.90
58517;DHT22;44308;50.810;0.284;2023-07-20T07:01:07;18.40;99.90
58517;DHT22;44308;50.810;0.284;2023-07-20T07:03:34;18.30;99.90
58517;DHT22;44308;50.810;0.284;2023-07-20T07:06:00;18.30;99.90
58517;DHT22;44308;50.810;0.284;2023-07-20T07:08:33;18.30;99.90
58517;DHT22;44308;50.810;0.284;2023-07-20T07:11:26;18.40;99.90
58517;DHT22;44308;50.810;0.284;2023-07-20T07:15:02;19.60;99.90
58517;DHT22;44308;50.810;0.284;2023-07-20T07:17:36;21.10;99.90
58517;DHT22;44308;50.810;0.284;2023-07-20T07:20:02;22.10;99.90
58517;DHT22;44308;50.810;0.284;2023-07-20T07:22:29;22.80;99.90
58517;DHT22;44308;50.810;0.284;2023-07-20T07:25:03;23.30;99.90
58517;DHT22;44308;50.810;0.284;2023-07-20T07:27:38;23.90;99.90
58517;DHT22;44308;50.810;0.284;2023-07-20T07:30:20;24.60;99.90
58517;DHT22;44308;50.810;0.284;2023-07-20T07:32:46;25.30;99.90
58517;DHT22;44308;50.810;0.284;2023-07-20T07:35:12;26.10;99.90
58517;DHT22;44308;50.810;0.284;2023-07-20T07:37:38;26.30;99.90
58517;DHT22;44308;50.810;0.284;2023-07-20T07:40:04;26.60;99.90
58517;DHT22;44308;50.810;0.284;2023-07-20T07:42:31;26.70;99.90
58517;DHT22;44308;50.810;0.284;2023-07-20T07:44:57;26.50;99.90
58517;DHT22;44308;50.810;0.284;2023-07-20T07:47:23;26.90;99.90
58517;DHT22;44308;50.810;0.284;2023-07-20T07:49:48;27.30;99.90
58517;DHT22;44308;50.810;0.284;2023-07-20T07:52:15;27.80;99.90
58517;DHT22;44308;50.810;0.284;2023-07-20T07:54:41;27.90;99.90
58517;DHT22;44308;50.810;0.284;2023-07-20T07:57:06;28.00;99.90
58517;DHT22;44308;50.810;0.284;2023-07-20T07:59:32;28.40;99.90
58517;DHT22;44308;50.810;0.284;2023-07-20T08:02:04;28.60;99.90
58517;DHT22;44308;50.810;0.284;2023-07-20T08:04:31;28.80;99.90
58517;DHT22;44308;50.810;0.284;2023-07-20T08:06:57;28.40;99.90
58517;DHT22;44308;50.810;0.284;2023-07-20T08:09:23;27.30;99.90
58517;DHT22;44308;50.810;0.284;2023-07-20T08:11:48;26.30;99.90
58517;DHT22;44308;50.810;0.284;2023-07-20T08:14:15;26.20;99.90
58517;DHT22;44308;50.810;0.284;2023-07-20T08:16:41;27.40;99.90
58517;DHT22;44308;50.810;0.284;2023-07-20T08:19:07;28.00;99.90
58517;DHT22;44308;50.810;0.284;2023-07-20T08:21:32;28.70;99.90
58517;DHT22;44308;50.810;0.284;2023-07-20T08:23:58;28.50;99.90
58517;DHT22;44308;50.810;0.284;2023-07-20T08:26:24;28.20;99.90
58517;DHT22;44308;50.810;0.284;2023-07-20T08:28:52;28.10;99.90
58517;DHT22;44308;50.810;0.284;2023-07-20T08:31:18;28.80;99.90
58517;DHT22;44308;50.810;0.284;2023-07-20T08:33:45;28.60;99.90
58517;DHT22;44308;50.810;0.284;2023-07-20T08:36:10;28.60;99.90
58517;DHT22;44308;50.810;0.284;2023-07-20T08:38:36;29.30;99.90
58517;DHT22;44308;50.810;0.284;2023-07-20T08:41:02;29.60;99.90
58517;DHT22;44308;50.810;0.284;2023-07-20T08:43:28;30.20;99.90
58517;DHT22;44308;50.810;0.284;2023-07-20T08:45:55;30.20;99.90
58517;DHT22;44308;50.810;0.284;2023-07-20T08:48:22;30.60;99.90
58517;DHT22;44308;50.810;0.284;2023-07-20T08:50:51;29.30;99.90
58517;DHT22;44308;50.810;0.284;2023-07-20T08:53:23;29.30;99.90
58517;DHT22;44308;50.810;0.284;2023-07-20T08:55:49;29.80;99.90
58517;DHT22;44308;50.810;0.284;2023-07-20T08:58:16;29.70;99.90
58517;DHT22;44308;50.810;0.284;2023-07-20T09:00:42;29.90;99.90
58517;DHT22;44308;50.810;0.284;2023-07-20T09:03:10;30.40;99.90
58517;DHT22;44308;50.810;0.284;2023-07-20T09:05:36;30.50;99.90
58517;DHT22;44308;50.810;0.284;2023-07-20T09:08:02;29.70;99.90
58517;DHT22;44308;50.810;0.284;2023-07-20T09:10:29;28.70;99.90
58517;DHT22;44308;50.810;0.284;2023-07-20T09:13:14;27.80;99.90
58517;DHT22;44308;50.810;0.284;2023-07-20T09:15:53;26.80;99.90
58517;DHT22;44308;50.810;0.284;2023-07-20T09:18:29;26.20;99.90
58517;DHT22;44308;50.810;0.284;2023-07-20T09:21:04;25.90;99.90
58517;DHT22;44308;50.810;0.284;2023-07-20T09:23:38;25.30;99.90
58517;DHT22;44308;50.810;0.284;2023-07-20T09:26:13;24.40;99.90
58517;DHT22;44308;50.810;0.284;2023-07-20T09:28:43;23.70;99.90
58517;DHT22;44308;50.810;0.284;2023-07-20T09:31:17;23.00;99.90
58517;DHT22;44308;50.810;0.284;2023-07-20T09:33:43;22.20;99.90
58517;DHT22;44308;50.810;0.284;2023-07-20T09:36:12;21.80;99.90
58517;DHT22;44308;50.810;0.284;2023-07-20T09:38:41;21.70;99.90
58517;DHT22;44308;50.810;0.284;2023-07-20T09:41:07;21.40;99.90
58517;DHT22;44308;50.810;0.284;2023-07-20T09:43:34;21.20;99.90
58517;DHT22;44308;50.810;0.284;2023-07-20T09:46:00;20.90;99.90
58517;DHT22;44308;50.810;0.284;2023-07-20T09:48:26;20.70;99.90
58517;DHT22;44308;50.810;0.284;2023-07-20T09:50:53;20.40;99.90
58517;DHT22;44308;50.810;0.284;2023-07-20T09:53:19;20.30;99.90
58517;DHT22;44308;50.810;0.284;2023-07-20T09:55:48;20.10;99.90
58517;DHT22;44308;50.810;0.284;2023-07-20T09:58:15;20.00;99.90
58517;DHT22;44308;50.810;0.284;2023-07-20T10:00:41;20.00;99.90
58517;DHT22;44308;50.810;0.284;2023-07-20T10:03:33;20.00;99.90
58517;DHT22;44308;50.810;0.284;2023-07-20T10:06:06;19.90;99.90
58517;DHT22;44308;50.810;0.284;2023-07-20T10:08:36;20.00;99.90
58517;DHT22;44308;50.810;0.284;2023-07-20T10:11:05;20.00;99.90
58517;DHT22;44308;50.810;0.284;2023-07-20T10:13:37;20.00;99.90
58517;DHT22;44308;50.810;0.284;2023-07-20T10:16:12;20.10;99.90
58517;DHT22;44308;50.810;0.284;2023-07-20T10:21:15;20.20;99.90
58517;DHT22;44308;50.810;0.284;2023-07-20T10:23:42;20.00;99.90
58517;DHT22;44308;50.810;0.284;2023-07-20T10:26:09;19.80;99.90
58517;DHT22;44308;50.810;0.284;2023-07-20T10:28:36;19.70;99.90
58517;DHT22;44308;50.810;0.284;2023-07-20T10:31:02;19.70;99.90
58517;DHT22;44308;50.810;0.284;2023-07-20T10:33:28;19.80;99.90
58517;DHT22;44308;50.810;0.284;2023-07-20T10:35:56;19.80;99.90
58517;DHT22;44308;50.810;0.284;2023-07-20T10:44:03;19.90;99.90
58517;DHT22;44308;50.810;0.284;2023-07-20T10:46:42;19.90;99.90
58517;DHT22;44308;50.810;0.284;2023-07-20T10:49:10;20.00;99.90
58517;DHT22;44308;50.810;0.284;2023-07-20T10:51:41;20.10;99.90
58517;DHT22;44308;50.810;0.284;2023-07-20T10:57:23;20.30;99.90
58517;DHT22;44308;50.810;0.284;2023-07-20T10:59:49;20.50;99.90
58517;DHT22;44308;50.810;0.284;2023-07-20T11:02:20;21.20;99.90
58517;DHT22;44308;50.810;0.284;2023-07-20T11:05:06;21.60;99.90
58517;DHT22;44308;50.810;0.284;2023-07-20T11:07:41;22.10;99.90
58517;DHT22;44308;50.810;0.284;2023-07-20T11:10:13;22.10;99.90
58517;DHT22;44308;50.810;0.284;2023-07-20T11:12:41;21.80;99.90
58517;DHT22;44308;50.810;0.284;2023-07-20T11:15:07;21.50;99.90
58517;DHT22;44308;50.810;0.284;2023-07-20T11:17:33;21.30;99.90
58517;DHT22;44308;50.810;0.284;2023-07-20T11:20:01;21.40;99.90
58517;DHT22;44308;50.810;0.284;2023-07-20T11:22:28;21.20;99.90
58517;DHT22;44308;50.810;0.284;2023-07-20T11:24:56;21.00;99.90
58517;DHT22;44308;50.810;0.284;2023-07-20T11:27:22;20.70;99.90
58517;DHT22;44308;50.810;0.284;2023-07-20T11:29:48;20.70;99.90
58517;DHT22;44308;50.810;0.284;2023-07-20T11:32:22;20.90;99.90
58517;DHT22;44308;50.810;0.284;2023-07-20T11:35:06;21.00;99.90
58517;DHT22;44308;50.810;0.284;2023-07-20T11:37:37;21.50;99.90
58517;DHT22;44308;50.810;0.284;2023-07-20T11:40:06;21.80;99.90
58517;DHT22;44308;50.810;0.284;2023-07-20T11:42:34;21.60;99.90
58517;DHT22;44308;50.810;0.284;2023-07-20T11:45:02;21.70;99.90
58517;DHT22;44308;50.810;0.284;2023-07-20T11:47:30;21.80;99.90
58517;DHT22;44308;50.810;0.284;2023-07-20T11:50:03;21.80;99.90
58517;DHT22;44308;50.810;0.284;2023-07-20T11:52:29;21.80;99.90
58517;DHT22;44308;50.810;0.284;2023-07-20T11:58:07;23.00;99.90
58517;DHT22;44308;50.810;0.284;2023-07-20T12:00:34;23.70;99.90
58517;DHT22;44308;50.810;0.284;2023-07-20T12:03:05;24.40;99.90
58517;DHT22;44308;50.810;0.284;2023-07-20T12:05:32;25.00;99.90
58517;DHT22;44308;50.810;0.284;2023-07-20T12:08:00;25.10;99.90
58517;DHT22;44308;50.810;0.284;2023-07-20T12:10:27;25.30;99.90
58517;DHT22;44308;50.810;0.284;2023-07-20T12:13:02;25.50;99.90
58517;DHT22;44308;50.810;0.284;2023-07-20T12:15:31;25.30;99.90
58517;DHT22;44308;50.810;0.284;2023-07-20T12:17:59;25.00;99.90
58517;DHT22;44308;50.810;0.284;2023-07-20T12:22:59;25.80;99.90
58517;DHT22;44308;50.810;0.284;2023-07-20T12:25:45;26.20;99.90
58517;DHT22;44308;50.810;0.284;2023-07-20T12:28:12;26.40;99.90
58517;DHT22;44308;50.810;0.284;2023-07-20T12:30:39;26.60;99.90
58517;DHT22;44308;50.810;0.284;2023-07-20T12:33:06;26.90;99.90
58517;DHT22;44308;50.810;0.284;2023-07-20T12:35:32;27.00;99.90
58517;DHT22;44308;50.810;0.284;2023-07-20T12:37:58;26.50;99.90
58517;DHT22;44308;50.810;0.284;2023-07-20T12:40:25;26.40;99.90
58517;DHT22;44308;50.810;0.284;2023-07-20T12:42:52;26.00;99.90
58517;DHT22;44308;50.810;0.284;2023-07-20T12:45:18;25.60;99.90
58517;DHT22;44308;50.810;0.284;2023-07-20T12:47:44;25.40;99.90
58517;DHT22;44308;50.810;0.284;2023-07-20T12:50:13;25.10;99.90
58517;DHT22;44308;50.810;0.284;2023-07-20T12:52:40;25.40;99.90
58517;DHT22;44308;50.810;0.284;2023-07-20T12:55:07;25.20;99.90
58517;DHT22;44308;50.810;0.284;2023-07-20T12:57:34;25.40;99.90
58517;DHT22;44308;50.810;0.284;2023-07-20T13:00:03;25.40;99.90
58517;DHT22;44308;50.810;0.284;2023-07-20T13:02:33;25.60;99.90
58517;DHT22;44308;50.810;0.284;2023-07-20T13:04:59;25.80;99.90
58517;DHT22;44308;50.810;0.284;2023-07-20T13:07:43;26.10;99.90
58517;DHT22;44308;50.810;0.284;2023-07-20T13:10:12;25.70;99.90
58517;DHT22;44308;50.810;0.284;2023-07-20T13:12:39;25.80;99.90
58517;DHT22;44308;50.810;0.284;2023-07-20T13:15:07;25.90;99.90
58517;DHT22;44308;50.810;0.284;2023-07-20T13:17:34;26.00;99.90
58517;DHT22;44308;50.810;0.284;2023-07-20T13:20:09;25.80;99.90
58517;DHT22;44308;50.810;0.284;2023-07-20T13:22:36;25.30;99.90
58517;DHT22;44308;50.810;0.284;2023-07-20T13:25:02;25.30;99.90
58517;DHT22;44308;50.810;0.284;2023-07-20T13:27:28;25.00;99.90
58517;DHT22;44308;50.810;0.284;2023-07-20T13:30:06;24.70;99.90
58517;DHT22;44308;50.810;0.284;2023-07-20T13:32:53;24.80;99.90
58517;DHT22;44308;50.810;0.284;2023-07-20T13:35:28;25.20;99.90
58517;DHT22;44308;50.810;0.284;2023-07-20T13:37:54;25.30;99.90
58517;DHT22;44308;50.810;0.284;2023-07-20T13:40:19;25.20;99.90
58517;DHT22;44308;50.810;0.284;2023-07-20T13:42:45;25.60;99.90
58517;DHT22;44308;50.810;0.284;2023-07-20T13:45:11;25.90;99.90
58517;DHT22;44308;50.810;0.284;2023-07-20T13:47:37;26.00;99.90
58517;DHT22;44308;50.810;0.284;2023-07-20T13:50:03;25.90;99.90
58517;DHT22;44308;50.810;0.284;2023-07-20T13:52:39;26.00;99.90
58517;DHT22;44308;50.810;0.284;2023-07-20T13:55:09;25.90;99.90
58517;DHT22;44308;50.810;0.284;2023-07-20T13:57:35;26.00;99.90
58517;DHT22;44308;50.810;0.284;2023-07-20T14:00:05;25.70;99.90
58517;DHT22;44308;50.810;0.284;2023-07-20T14:02:33;25.80;99.90
58517;DHT22;44308;50.810;0.284;2023-07-20T14:04:59;26.00;99.90
58517;DHT22;44308;50.810;0.284;2023-07-20T14:07:25;26.10;99.90
58517;DHT22;44308;50.810;0.284;2023-07-20T14:09:51;25.60;99.90
58517;DHT22;44308;50.810;0.284;2023-07-20T14:12:16;25.70;99.90
58517;DHT22;44308;50.810;0.284;2023-07-20T14:14:42;25.90;99.90
58517;DHT22;44308;50.810;0.284;2023-07-20T14:17:08;26.30;99.90
58517;DHT22;44308;50.810;0.284;2023-07-20T14:19:36;26.20;99.90
58517;DHT22;44308;50.810;0.284;2023-07-20T14:22:02;26.40;99.90
58517;DHT22;44308;50.810;0.284;2023-07-20T14:24:29;26.20;99.90
58517;DHT22;44308;50.810;0.284;2023-07-20T14:26:55;26.00;99.90
58517;DHT22;44308;50.810;0.284;2023-07-20T14:29:21;26.10;99.90
58517;DHT22;44308;50.810;0.284;2023-07-20T14:31:47;26.10;99.90
58517;DHT22;44308;50.810;0.284;2023-07-20T14:34:16;26.00;99.90
58517;DHT22;44308;50.810;0.284;2023-07-20T14:36:44;26.00;99.90
58517;DHT22;44308;50.810;0.284;2023-07-20T14:39:10;25.70;99.90
58517;DHT22;44308;50.810;0.284;2023-07-20T14:41:36;25.80;99.90
58517;DHT22;44308;50.810;0.284;2023-07-20T14:44:02;25.80;99.90
58517;DHT22;44308;50.810;0.284;2023-07-20T14:46:30;26.10;99.90
58517;DHT22;44308;50.810;0.284;2023-07-20T14:48:57;26.10;99.90
58517;DHT22;44308;50.810;0.284;2023-07-20T14:51:24;26.20;99.90
58517;DHT22;44308;50.810;0.284;2023-07-20T14:53:50;25.90;99.90
58517;DHT22;44308;50.810;0.284;2023-07-20T14:56:15;25.90;99.90
58517;DHT22;44308;50.810;0.284;2023-07-20T14:58:41;25.80;99.90
58517;DHT22;44308;50.810;0.284;2023-07-20T15:01:07;26.00;99.90
58517;DHT22;44308;50.810;0.284;2023-07-20T15:03:32;25.70;99.90
58517;DHT22;44308;50.810;0.284;2023-07-20T15:05:58;25.50;99.90
58517;DHT22;44308;50.810;0.284;2023-07-20T15:08:24;25.40;99.90
58517;DHT22;44308;50.810;0.284;2023-07-20T15:10:53;25.60;99.90
58517;DHT22;44308;50.810;0.284;2023-07-20T15:13:19;25.70;99.90
58517;DHT22;44308;50.810;0.284;2023-07-20T15:15:44;25.70;99.90
58517;DHT22;44308;50.810;0.284;2023-07-20T15:18:10;25.40;99.90
58517;DHT22;44308;50.810;0.284;2023-07-20T15:20:36;25.10;99.90
58517;DHT22;44308;50.810;0.284;2023-07-20T15:23:02;25.10;99.90
58517;DHT22;44308;50.810;0.284;2023-07-20T15:25:28;25.10;99.90
58517;DHT22;44308;50.810;0.284;2023-07-20T15:27:54;25.30;99.90
58517;DHT22;44308;50.810;0.284;2023-07-20T15:30:20;25.20;99.90
58517;DHT22;44308;50.810;0.284;2023-07-20T15:32:47;25.10;99.90
58517;DHT22;44308;50.810;0.284;2023-07-20T15:35:12;25.10;99.90
58517;DHT22;44308;50.810;0.284;2023-07-20T15:37:38;25.00;99.90
58517;DHT22;44308;50.810;0.284;2023-07-20T15:40:04;25.20;99.90
58517;DHT22;44308;50.810;0.284;2023-07-20T15:42:31;25.10;99.90
58517;DHT22;44308;50.810;0.284;2023-07-20T15:45:00;24.90;99.90
58517;DHT22;44308;50.810;0.284;2023-07-20T15:47:26;24.60;99.90
58517;DHT22;44308;50.810;0.284;2023-07-20T15:49:51;24.40;99.90
58517;DHT22;44308;50.810;0.284;2023-07-20T15:52:17;24.60;99.90
58517;DHT22;44308;50.810;0.284;2023-07-20T15:54:46;24.70;99.90
58517;DHT22;44308;50.810;0.284;2023-07-20T15:57:11;24.70;99.90
58517;DHT22;44308;50.810;0.284;2023-07-20T15:59:38;24.70;99.90
58517;DHT22;44308;50.810;0.284;2023-07-20T16:02:06;24.60;99.90
58517;DHT22;44308;50.810;0.284;2023-07-20T16:04:33;24.50;99.90
58517;DHT22;44308;50.810;0.284;2023-07-20T16:06:59;24.40;99.90
58517;DHT22;44308;50.810;0.284;2023-07-20T16:09:25;24.20;99.90
58517;DHT22;44308;50.810;0.284;2023-07-20T16:11:50;24.00;99.90
58517;DHT22;44308;50.810;0.284;2023-07-20T16:14:18;24.00;99.90
58517;DHT22;44308;50.810;0.284;2023-07-20T16:16:44;23.90;99.90
58517;DHT22;44308;50.810;0.284;2023-07-20T16:19:09;23.80;99.90
58517;DHT22;44308;50.810;0.284;2023-07-20T16:21:35;23.90;99.90